Time;durP1;ratioP1;P1;durP2;ratioP2;P2;SDS_P1;SDS_P2;PMS_P1;PMS_P2;Temp;Humidity;BMP_temperature;BMP_pressure;BME280_temperature;BME280_humidity;BME280_pressure;Samples;Min_cycle;Max_cycle;Signal;HPM_P1;HPM_P2
2021/04/20 00:02:14;;;;;;;3.75;1.80;;;;;;;12.30;49.87;100685.34;143754;591;46010;-73
2021/04/20 00:08:28;;;;;;;11.38;5.72;;;;;;;12.30;49.93;100682.72;143748;631;46012;-74
2021/04/20 00:14:35;;;;;;;4.87;1.37;;;;;;;12.14;50.27;100694.69;143754;595;46008;-75
2021/04/20 00:17:05;;;;;;;4.30;1.80;;;;;;;12.11;49.79;100692.16;143754;611;47026;-74
2021/04/20 00:19:32;;;;;;;3.05;1.30;;;;;;;12.04;50.26;100688.03;143754;581;46022;-74
2021/04/20 00:21:59;;;;;;;3.90;1.48;;;;;;;11.96;50.28;100693.53;143751;597;46019;-74
2021/04/20 00:24:26;;;;;;;3.50;1.20;;;;;;;11.91;49.89;100693.66;143756;630;45020;-74
2021/04/20 00:26:56;;;;;;;3.35;1.30;;;;;;;11.81;49.88;100684.34;143755;583;46020;-74
2021/04/20 00:29:23;;;;;;;2.33;1.33;;;;;;;11.71;50.35;100689.06;143754;603;46013;-76
2021/04/20 00:31:57;;;;;;;3.83;1.73;;;;;;;11.69;50.43;100691.75;143752;572;46018;-75
2021/04/20 00:34:39;;;;;;;3.70;1.33;;;;;;;11.62;50.58;100692.88;143751;621;46010;-76
2021/04/20 00:37:06;;;;;;;3.00;1.10;;;;;;;11.57;50.97;100700.03;143755;567;47012;-75
2021/04/20 00:39:33;;;;;;;2.78;1.30;;;;;;;11.52;50.87;100699.31;143754;576;46022;-74
2021/04/20 00:42:05;;;;;;;2.47;1.30;;;;;;;11.45;50.98;100692.53;143753;573;46018;-73
2021/04/20 08:40:50;;;;;;;2.75;0.90;;;;;;;19.71;42.34;100949.63;143750;469;46019;-72
2021/04/20 08:43:54;;;;;;;4.43;0.85;;;;;;;19.95;36.49;100951.72;143752;630;46020;-72
2021/04/20 08:47:23;;;;;;;2.42;0.80;;;;;;;19.85;36.99;100948.78;143754;582;46013;-73
2021/04/20 08:50:03;;;;;;;2.03;0.90;;;;;;;19.88;38.72;100961.06;143753;700;47008;-73
2021/04/20 08:52:58;;;;;;;1.87;1.15;;;;;;;20.12;39.48;100958.63;143754;600;47012;-72
2021/04/20 08:56:08;;;;;;;3.70;1.00;;;;;;;20.19;38.09;100953.75;143750;564;46022;-73
2021/04/20 08:59:27;;;;;;;1.73;0.77;;;;;;;20.33;36.73;100953.72;143753;714;45012;-73
2021/04/20 09:02:23;;;;;;;3.22;0.80;;;;;;;20.28;37.56;100948.69;143757;588;46010;-70
2021/04/20 09:06:10;;;;;;;1.45;0.70;;;;;;;20.26;38.93;100947.09;143755;581;46012;-71
2021/04/20 09:08:48;;;;;;;3.70;0.80;;;;;;;20.38;37.87;100943.59;143750;741;48020;-70
2021/04/20 09:11:36;;;;;;;2.10;0.82;;;;;;;20.58;37.68;100939.59;143748;570;47011;-71
2021/04/20 09:14:16;;;;;;;1.33;0.70;;;;;;;20.71;37.65;100945.03;143749;629;46020;-72
2021/04/20 09:17:15;;;;;;;5.00;1.00;;;;;;;20.78;34.99;100943.62;143754;594;47008;-71
2021/04/20 09:19:57;;;;;;;5.05;0.80;;;;;;;20.77;34.02;100941.09;143750;582;46012;-73
2021/04/20 09:22:59;;;;;;;2.10;0.88;;;;;;;20.66;32.46;100935.59;143753;629;46010;-76
2021/04/20 09:25:43;;;;;;;2.45;0.90;;;;;;;20.81;33.30;100949.75;143752;605;46021;-76
2021/04/20 09:28:16;;;;;;;2.45;0.73;;;;;;;21.03;32.99;100946.47;143756;613;46010;-76
2021/04/20 09:31:00;;;;;;;0.90;0.60;;;;;;;21.13;31.05;100937.72;143752;592;46022;-76
2021/04/20 09:33:53;;;;;;;;;;;;;;;21.21;32.45;100936.31;143760;971;45010;-76
2021/04/20 09:36:24;;;;;;;2.72;0.90;;;;;;;21.19;32.82;100928.44;143759;589;46008;-75
2021/04/20 09:38:51;;;;;;;3.80;0.90;;;;;;;21.33;31.19;100934.63;143754;616;46018;-76
2021/04/20 09:41:30;;;;;;;4.00;0.90;;;;;;;21.47;34.36;100938.03;143753;569;46023;-75
2021/04/20 09:44:43;;;;;;;2.50;0.98;;;;;;;21.69;35.19;100925.84;143752;579;46008;-75
2021/04/20 09:47:52;;;;;;;2.40;1.15;;;;;;;21.83;33.60;100924.00;143751;565;46020;-74
2021/04/20 09:50:56;;;;;;;3.62;1.50;;;;;;;21.83;33.20;100932.03;143755;607;46008;-76
2021/04/20 09:54:15;;;;;;;3.33;0.80;;;;;;;21.88;33.65;100936.06;143754;668;46020;-74
2021/04/20 09:56:51;;;;;;;3.45;1.00;;;;;;;21.78;31.80;100927.84;143753;603;45043;-75
2021/04/20 09:59:49;;;;;;;4.40;1.00;;;;;;;21.52;34.18;100934.19;143750;565;47008;-75
2021/04/20 10:03:15;;;;;;;2.30;1.15;;;;;;;21.21;34.79;100923.81;143753;566;47010;-74
2021/04/20 10:06:38;;;;;;;3.33;0.90;;;;;;;21.17;34.73;100925.00;143751;594;46010;-76
2021/04/20 10:10:14;;;;;;;2.60;0.80;;;;;;;21.03;35.66;100915.28;143753;641;46008;-75
2021/04/20 10:13:37;;;;;;;2.10;0.80;;;;;;;20.76;33.21;100916.22;143753;635;46020;-75
2021/04/20 10:16:35;;;;;;;4.10;0.73;;;;;;;20.74;36.24;100927.94;143753;569;46017;-75
2021/04/20 10:19:42;;;;;;;3.22;1.10;;;;;;;21.01;32.65;100933.22;143747;673;48023;-76
2021/04/20 10:22:54;;;;;;;2.72;1.62;;;;;;;21.28;34.73;100927.78;143752;618;46008;-75
2021/04/20 10:25:48;;;;;;;2.58;1.00;;;;;;;21.53;32.17;100920.75;143753;593;46008;-74
2021/04/20 10:28:47;;;;;;;4.62;0.90;;;;;;;21.70;28.37;100911.53;143755;569;46008;-73
2021/04/20 10:31:26;;;;;;;1.58;0.70;;;;;;;21.74;30.62;100918.34;143752;628;46022;-73
2021/04/20 10:33:55;;;;;;;3.28;1.00;;;;;;;21.59;31.44;100922.97;143752;573;46008;-75
2021/04/20 10:36:26;;;;;;;3.87;1.70;;;;;;;21.64;32.12;100917.31;143751;604;46010;-75
2021/04/20 10:38:57;;;;;;;2.97;1.00;;;;;;;21.85;30.84;100919.41;143755;640;46008;-74
2021/04/20 10:41:34;;;;;;;1.23;0.73;;;;;;;21.93;33.08;100915.22;143751;577;47010;-75
2021/04/20 10:44:13;;;;;;;2.17;0.90;;;;;;;21.93;31.70;100917.88;143752;575;46018;-76
2021/04/20 10:46:42;;;;;;;2.08;0.80;;;;;;;22.03;30.10;100912.72;143747;589;47010;-75
2021/04/20 10:49:15;;;;;;;5.37;1.00;;;;;;;22.10;29.63;100922.00;143753;615;46018;-76
2021/04/20 10:51:42;;;;;;;;;;;;;;;21.87;30.82;100914.78;143757;983;46908;-74
2021/04/20 10:54:12;;;;;;;1.75;0.70;;;;;;;21.72;31.37;100908.75;143758;714;46010;-75
2021/04/20 10:56:53;;;;;;;1.62;0.80;;;;;;;21.90;31.83;100902.06;143752;710;47010;-75
2021/04/20 10:59:39;;;;;;;3.85;1.05;;;;;;;22.05;32.57;100910.78;143757;589;46010;-76
2021/04/20 11:02:18;;;;;;;2.47;0.98;;;;;;;22.13;29.07;100913.75;143752;583;46019;-75
2021/04/20 11:04:50;;;;;;;2.40;0.80;;;;;;;22.14;28.95;100901.22;143753;617;46010;-74
2021/04/20 11:07:41;;;;;;;3.65;0.98;;;;;;;22.22;30.38;100898.84;143753;569;46030;-75
2021/04/20 11:10:11;;;;;;;3.03;1.00;;;;;;;22.29;28.22;100907.25;143755;671;47013;-75
2021/04/20 11:12:51;;;;;;;1.73;0.70;;;;;;;22.31;29.55;100902.66;143753;606;46020;-75
2021/04/20 11:15:29;;;;;;;1.52;0.77;;;;;;;22.37;31.45;100904.91;143754;566;46010;-75
2021/04/20 11:18:11;;;;;;;1.75;0.75;;;;;;;22.47;29.66;100900.59;143755;629;46010;-75
2021/04/20 11:20:51;;;;;;;1.80;0.88;;;;;;;22.39;31.81;100897.63;143757;582;47012;-74
2021/04/20 11:23:30;;;;;;;2.37;0.90;;;;;;;22.51;30.70;100895.84;143751;615;46018;-75
2021/04/20 11:26:12;;;;;;;1.58;0.70;;;;;;;22.64;31.61;100896.62;143755;577;46915;-76
2021/04/20 11:29:03;;;;;;;2.97;0.65;;;;;;;22.85;33.56;100893.25;143755;637;46018;-75
2021/04/20 11:31:40;;;;;;;3.60;1.62;;;;;;;23.06;31.87;100887.22;143751;571;46019;-75
2021/04/20 11:34:36;;;;;;;3.65;1.10;;;;;;;23.23;32.10;100885.94;143754;643;45034;-75
2021/04/20 11:37:09;;;;;;;3.20;0.98;;;;;;;23.24;28.30;100884.97;143753;611;46010;-74
2021/04/20 11:40:04;;;;;;;1.37;0.68;;;;;;;23.10;28.12;100886.88;143753;584;46031;-75
2021/04/20 11:42:46;;;;;;;1.65;0.90;;;;;;;23.02;30.77;100880.38;143754;643;46016;-76
2021/04/20 11:45:20;;;;;;;1.73;0.85;;;;;;;23.11;29.36;100883.22;143755;646;46012;-75
2021/04/20 11:48:18;;;;;;;1.83;0.60;;;;;;;23.22;30.29;100886.91;143755;612;46018;-75
2021/04/20 11:50:59;;;;;;;6.87;1.40;;;;;;;22.81;28.82;100879.28;143753;581;46020;-74
2021/04/20 11:53:29;;;;;;;1.27;0.70;;;;;;;22.24;27.01;100880.00;143755;582;46020;-75
2021/04/20 11:55:59;;;;;;;28.87;6.00;;;;;;;21.88;29.98;100871.06;143750;646;46018;-74
2021/04/20 11:58:47;;;;;;;4.90;0.93;;;;;;;21.92;35.27;100872.56;143752;636;46010;-76
2021/04/20 12:01:22;;;;;;;1.98;1.00;;;;;;;22.20;33.90;100874.06;143755;599;46011;-75
2021/04/20 12:03:59;;;;;;;1.60;0.93;;;;;;;22.40;34.30;100872.56;143758;613;46012;-75
2021/04/20 12:06:43;;;;;;;15.70;3.30;;;;;;;22.38;34.93;100871.00;143752;601;46012;-74
2021/04/20 12:09:20;;;;;;;3.37;1.17;;;;;;;22.46;34.11;100857.91;143753;787;46011;-75
2021/04/20 12:11:49;;;;;;;1.58;0.77;;;;;;;22.55;28.14;100859.00;143755;593;46020;-75
2021/04/20 12:14:22;;;;;;;1.52;0.90;;;;;;;22.58;30.93;100864.13;143754;589;46010;-75
2021/04/20 12:16:54;;;;;;;3.72;1.00;;;;;;;22.71;32.03;100864.88;143752;605;46013;-75
2021/04/20 12:19:26;;;;;;;1.62;1.02;;;;;;;22.78;27.55;100854.56;143756;582;45018;-75
2021/04/20 12:21:58;;;;;;;2.92;0.90;;;;;;;22.68;29.14;100853.56;143745;624;46010;-75
2021/04/20 12:24:27;;;;;;;4.47;0.90;;;;;;;22.75;30.12;100847.63;143741;575;47012;-75
2021/04/20 12:26:57;;;;;;;2.00;0.80;;;;;;;22.75;29.95;100842.28;143740;584;46910;-75
2021/04/20 12:29:38;;;;;;;2.20;0.75;;;;;;;22.65;26.11;100836.78;143742;589;46010;-75
2021/04/20 12:32:16;;;;;;;3.37;0.80;;;;;;;22.38;30.97;100838.91;143740;587;46020;-76
2021/04/20 12:34:44;;;;;;;1.73;0.75;;;;;;;22.21;25.99;100818.72;143744;611;46010;-75
2021/04/20 12:37:12;;;;;;;1.77;0.90;;;;;;;22.12;29.40;100833.66;143740;566;46018;-70
2021/04/20 12:39:47;;;;;;;3.97;1.08;;;;;;;22.28;30.99;100819.97;143740;637;46010;-76
2021/04/20 12:42:20;;;;;;;2.70;0.80;;;;;;;22.36;27.35;100824.78;143741;592;46020;-75
2021/04/20 12:44:53;;;;;;;2.97;0.90;;;;;;;22.43;29.68;100824.19;143745;576;46031;-75
2021/04/20 12:47:31;;;;;;;3.28;0.88;;;;;;;22.58;29.51;100821.31;143741;692;46012;-76
2021/04/20 12:50:03;;;;;;;7.10;1.23;;;;;;;22.77;28.00;100815.38;143742;637;46010;-76
2021/04/20 12:52:32;;;;;;;1.83;0.95;;;;;;;22.89;27.76;100813.56;143744;627;45021;-75
2021/04/20 12:55:07;;;;;;;2.75;1.40;;;;;;;22.99;28.61;100809.19;143742;574;46018;-76
2021/04/20 12:57:42;;;;;;;1.83;1.10;;;;;;;23.12;29.96;100803.72;143740;651;46910;-77
2021/04/20 13:00:27;;;;;;;1.58;0.85;;;;;;;23.23;29.99;100803.75;143743;597;46011;-76
2021/04/20 13:02:57;;;;;;;3.40;0.98;;;;;;;23.26;27.06;100787.41;143743;610;46012;-75
2021/04/20 13:05:40;;;;;;;3.60;0.90;;;;;;;23.00;31.55;100797.50;143743;612;46010;-76
2021/04/20 13:08:14;;;;;;;4.40;1.08;;;;;;;22.81;28.50;100800.78;143740;574;46911;-76
2021/04/20 13:10:43;;;;;;;3.40;0.90;;;;;;;22.80;26.08;100801.78;143740;587;47012;-75
2021/04/20 13:13:16;;;;;;;1.52;0.90;;;;;;;22.76;27.73;100792.28;143743;600;46010;-75
2021/04/20 13:15:45;;;;;;;1.25;0.80;;;;;;;22.53;23.73;100786.06;143742;565;47012;-75
2021/04/20 13:18:19;;;;;;;8.48;1.50;;;;;;;22.22;28.16;100799.91;143738;672;46018;-76
2021/04/20 13:20:58;;;;;;;3.62;1.60;;;;;;;22.24;29.00;100797.09;143742;587;46010;-75
2021/04/20 13:23:40;;;;;;;8.98;1.27;;;;;;;22.45;29.60;100795.50;143740;601;46020;-76
2021/04/20 13:26:17;;;;;;;4.40;0.93;;;;;;;22.57;27.21;100792.87;143742;616;46018;-76
2021/04/20 13:28:47;;;;;;;1.50;1.00;;;;;;;22.61;27.80;100791.66;143740;631;46018;-75
2021/04/20 13:31:21;;;;;;;2.47;1.42;;;;;;;22.75;28.83;100778.03;143741;619;46018;-76
2021/04/20 13:33:53;;;;;;;2.08;0.85;;;;;;;22.87;27.24;100783.38;143743;577;46020;-76
2021/04/20 13:36:22;;;;;;;1.15;0.70;;;;;;;22.93;25.31;100785.59;143742;582;47012;-75
2021/04/20 13:39:06;;;;;;;6.72;0.90;;;;;;;22.68;26.11;100787.53;143738;588;46019;-75
2021/04/20 13:41:38;;;;;;;2.47;0.80;;;;;;;22.56;27.69;100786.66;143740;610;46031;-74
2021/04/20 13:44:07;;;;;;;2.45;0.90;;;;;;;22.52;25.71;100779.00;143740;700;47010;-75
2021/04/20 13:46:45;;;;;;;1.33;0.82;;;;;;;22.35;26.10;100777.59;143743;628;46010;-75
2021/04/20 13:49:12;;;;;;;4.03;1.00;;;;;;;22.27;25.84;100781.69;143741;607;46022;-75
2021/04/20 13:51:57;;;;;;;4.62;0.90;;;;;;;22.27;27.93;100794.22;143742;617;46010;-75
2021/04/20 13:54:35;;;;;;;4.20;0.80;;;;;;;22.07;31.32;100806.41;143743;598;46010;-76
2021/04/20 13:57:11;;;;;;;1.17;0.70;;;;;;;21.58;31.64;100805.53;143744;564;46010;-76
2021/04/20 13:59:53;;;;;;;1.90;0.80;;;;;;;21.15;35.08;100806.81;143741;585;45911;-76
2021/04/20 14:02:22;;;;;;;1.35;0.93;;;;;;;20.73;32.55;100809.69;143742;639;46010;-75
2021/04/20 14:04:54;;;;;;;2.55;0.80;;;;;;;20.34;34.05;100814.13;143743;621;47010;-75
2021/04/20 14:07:35;;;;;;;1.15;0.80;;;;;;;20.19;34.27;100799.13;143746;565;46020;-74
2021/04/20 14:10:07;;;;;;;1.60;0.70;;;;;;;20.12;32.52;100799.56;143742;585;46012;-74
2021/04/20 14:12:45;;;;;;;1.00;0.80;;;;;;;20.06;33.00;100818.59;143742;603;46914;-75
2021/04/20 14:15:22;;;;;;;2.08;0.80;;;;;;;19.95;34.00;100818.47;143741;588;46021;-75
2021/04/20 14:18:00;;;;;;;1.50;0.80;;;;;;;19.88;35.33;100817.16;143742;592;47008;-76
2021/04/20 14:20:32;;;;;;;2.05;0.90;;;;;;;19.79;35.40;100823.91;143741;592;46022;-74
2021/04/20 14:23:12;;;;;;;3.50;0.80;;;;;;;19.75;35.79;100825.94;143741;566;46018;-74
2021/04/20 14:25:52;;;;;;;1.70;0.60;;;;;;;19.71;36.91;100826.22;143742;575;46010;-75
2021/04/20 14:28:28;;;;;;;1.75;0.85;;;;;;;19.58;36.19;100831.50;143741;592;46018;-74
2021/04/20 14:30:57;;;;;;;1.70;0.80;;;;;;;19.37;36.41;100831.03;143745;579;46013;-75
2021/04/20 14:33:44;;;;;;;5.87;0.90;;;;;;;19.19;36.92;100831.25;143743;589;46010;-74
2021/04/20 14:36:25;;;;;;;1.15;0.70;;;;;;;19.03;36.22;100828.69;143742;622;46011;-74
2021/04/20 14:38:52;;;;;;;2.15;0.90;;;;;;;18.93;36.58;100839.03;143743;569;47010;-75
2021/04/20 14:41:22;;;;;;;1.33;0.80;;;;;;;18.87;36.48;100833.19;143740;632;46018;-75
2021/04/20 14:43:52;;;;;;;2.12;0.70;;;;;;;18.78;36.95;100837.25;143742;655;46010;-74
2021/04/20 14:46:21;;;;;;;1.77;0.80;;;;;;;18.66;35.64;100833.56;143740;571;46021;-74
2021/04/20 14:48:56;;;;;;;2.55;1.00;;;;;;;18.61;36.61;100833.81;143745;593;46010;-74
2021/04/20 14:51:30;;;;;;;2.35;0.85;;;;;;;18.59;36.12;100841.03;143740;610;46018;-75
2021/04/20 14:54:00;;;;;;;1.60;0.90;;;;;;;18.52;34.84;100842.38;143740;599;46010;-74
2021/04/20 14:56:31;;;;;;;1.75;0.98;;;;;;;18.44;35.14;100836.66;143738;640;46020;-74
2021/04/20 14:59:02;;;;;;;2.70;0.90;;;;;;;18.37;34.80;100837.94;143744;603;45019;-74
2021/04/20 15:01:32;;;;;;;1.30;0.85;;;;;;;18.38;35.11;100845.81;143741;632;46018;-74
2021/04/20 15:04:10;;;;;;;2.40;1.10;;;;;;;18.39;36.29;100841.38;143742;585;46010;-75
2021/04/20 15:06:38;;;;;;;3.30;1.00;;;;;;;18.43;35.17;100838.44;143741;632;46010;-75
2021/04/20 15:09:15;;;;;;;4.97;0.88;;;;;;;18.50;36.01;100843.41;143742;649;46010;-74
2021/04/20 15:12:07;;;;;;;3.55;1.00;;;;;;;18.55;35.30;100836.00;143741;588;46018;-75
2021/04/20 15:14:51;;;;;;;1.40;0.70;;;;;;;18.71;34.49;100835.91;143741;604;46019;-74
2021/04/20 15:17:29;;;;;;;1.05;0.70;;;;;;;18.82;34.51;100836.16;143742;627;46020;-75
2021/04/20 15:19:57;;;;;;;1.50;0.80;;;;;;;18.90;34.01;100835.69;143743;608;46007;-75
2021/04/20 15:22:27;;;;;;;1.40;0.80;;;;;;;19.05;33.64;100839.22;143742;571;46013;-75
2021/04/20 15:25:06;;;;;;;1.00;0.68;;;;;;;19.14;32.94;100838.66;143742;579;46010;-75
2021/04/20 15:27:45;;;;;;;1.50;0.70;;;;;;;19.21;33.49;100833.81;143744;595;46010;-75
2021/04/20 15:30:35;;;;;;;1.73;0.70;;;;;;;19.25;35.54;100819.38;143743;640;46032;-75
2021/04/20 15:33:39;;;;;;;1.30;0.70;;;;;;;19.38;32.59;100825.62;143741;633;46018;-76
2021/04/20 15:36:15;;;;;;;3.20;1.03;;;;;;;19.46;33.48;100833.13;143741;628;46010;-75
2021/04/20 15:39:09;;;;;;;3.20;0.90;;;;;;;19.41;35.09;100820.09;143744;600;45020;-74
2021/04/20 15:41:51;;;;;;;2.30;0.82;;;;;;;19.38;34.05;100830.97;143742;608;46018;-75
2021/04/20 15:44:23;;;;;;;2.08;0.80;;;;;;;19.32;32.81;100831.34;143742;575;46022;-74
2021/04/20 15:47:00;;;;;;;2.37;0.80;;;;;;;19.32;34.09;100835.81;143741;620;46010;-75
2021/04/20 15:49:43;;;;;;;1.50;0.80;;;;;;;19.32;34.29;100834.00;143743;573;46020;-74
2021/04/20 15:52:20;;;;;;;3.92;1.10;;;;;;;19.35;34.05;100831.13;143744;591;45037;-75
2021/04/20 15:55:03;;;;;;;2.05;0.90;;;;;;;19.39;34.74;100845.12;143741;652;46018;-74
2021/04/20 15:57:40;;;;;;;3.37;1.50;;;;;;;19.37;34.04;100855.00;143743;571;45915;-74
2021/04/20 16:00:12;;;;;;;3.97;1.50;;;;;;;19.30;33.85;100848.34;143742;649;46021;-77
2021/04/20 16:02:42;;;;;;;5.78;1.60;;;;;;;19.22;33.20;100849.69;143743;585;47012;-74
2021/04/20 16:05:16;;;;;;;2.00;1.00;;;;;;;19.14;33.86;100865.28;143628;576;67597;-75
2021/04/20 16:07:49;;;;;;;1.45;0.90;;;;;;;19.04;32.37;100853.47;143742;604;45018;-74
2021/04/20 16:10:24;;;;;;;2.92;1.52;;;;;;;19.01;34.10;100859.00;143742;582;46008;-75
2021/04/20 16:12:57;;;;;;;3.40;1.50;;;;;;;18.94;34.48;100875.34;143742;605;46020;-75
2021/04/20 16:15:33;;;;;;;3.35;1.20;;;;;;;18.87;34.92;100871.28;143740;612;46018;-75
2021/04/20 16:18:02;;;;;;;1.92;1.00;;;;;;;18.84;33.15;100875.97;143741;588;46010;-75
2021/04/20 16:20:35;;;;;;;2.97;1.02;;;;;;;18.76;33.80;100871.94;143743;574;47009;-75
2021/04/20 16:23:08;;;;;;;1.33;0.90;;;;;;;18.73;34.95;100876.59;143741;617;46019;-75
2021/04/20 16:25:48;;;;;;;2.15;0.93;;;;;;;18.74;35.74;100873.84;143738;580;47022;-75
2021/04/20 16:28:21;;;;;;;2.35;1.20;;;;;;;18.77;35.57;100884.28;143740;593;47008;-75
2021/04/20 16:31:16;;;;;;;3.37;1.10;;;;;;;18.81;35.83;100892.06;143740;609;46020;-75
2021/04/20 16:33:44;;;;;;;3.55;1.10;;;;;;;18.82;34.01;100889.34;143742;651;47010;-75
2021/04/20 16:39:33;;;;;;;2.50;0.90;;;;;;;18.79;35.13;100908.13;143740;457;47029;-74
2021/04/20 16:42:43;;;;;;;1.40;0.98;;;;;;;18.75;36.39;100910.12;143743;602;46010;-74
2021/04/20 16:46:11;;;;;;;3.40;1.30;;;;;;;18.72;37.04;100907.63;143742;595;46019;-73
2021/04/20 16:50:11;;;;;;;3.35;1.80;;;;;;;18.61;38.26;100910.94;143742;578;46020;-75
2021/04/20 16:53:32;;;;;;;7.32;1.62;;;;;;;18.47;38.05;100912.72;143743;587;46018;-72
2021/04/20 16:56:24;;;;;;;4.65;1.40;;;;;;;18.37;37.25;100921.22;143740;565;46008;-74
2021/04/20 16:59:45;;;;;;;3.95;1.50;;;;;;;18.35;37.35;100924.91;143743;605;46008;-75
2021/04/20 17:02:42;;;;;;;5.20;2.47;;;;;;;18.34;37.90;100933.81;143741;597;46010;-75
2021/04/20 17:06:07;;;;;;;3.67;1.80;;;;;;;18.26;38.24;100937.75;143741;570;46010;-75
2021/04/20 17:09:02;;;;;;;3.60;1.70;;;;;;;18.23;39.08;100947.69;143743;571;46010;-74
2021/04/20 17:12:05;;;;;;;18.80;2.50;;;;;;;18.21;39.01;100949.59;143744;588;46008;-74
2021/04/20 17:15:18;;;;;;;9.80;1.87;;;;;;;18.16;33.86;100946.34;143738;621;46019;-74
2021/04/20 17:19:01;;;;;;;8.13;1.70;;;;;;;18.08;36.04;100960.03;143738;608;46008;-74
2021/04/20 17:22:34;;;;;;;4.55;1.80;;;;;;;18.03;35.99;100962.09;143740;607;46021;-75
2021/04/20 17:25:54;;;;;;;4.30;2.05;;;;;;;18.02;36.15;100971.88;143740;582;46018;-74
2021/04/20 17:29:16;;;;;;;5.25;1.73;;;;;;;18.00;36.09;100987.06;143737;566;47022;-76
2021/04/20 17:32:46;;;;;;;5.55;2.25;;;;;;;17.93;35.38;100985.66;143738;596;46027;-74
2021/04/20 17:35:22;;;;;;;9.35;3.58;;;;;;;17.88;35.18;100987.69;143740;599;46021;-74
2021/04/20 17:38:28;;;;;;;12.10;5.00;;;;;;;17.87;36.27;100994.78;143741;600;46016;-74
2021/04/20 17:41:34;;;;;;;12.55;5.20;;;;;;;17.84;36.96;100989.66;143737;616;46908;-74
2021/04/20 17:44:50;;;;;;;17.15;9.68;;;;;;;17.83;36.35;100995.03;143741;569;46025;-74
2021/04/20 17:47:55;;;;;;;6.62;3.10;;;;;;;17.80;36.47;100996.06;143739;603;46008;-74
2021/04/20 17:51:08;;;;;;;6.40;2.67;;;;;;;17.77;37.44;101004.22;143739;564;47010;-74
2021/04/20 17:54:23;;;;;;;9.32;2.90;;;;;;;17.77;37.61;100996.25;143738;564;46906;-75
2021/04/20 17:57:16;;;;;;;5.30;1.98;;;;;;;17.77;37.15;101001.56;143739;609;46018;-76
2021/04/20 18:00:38;;;;;;;7.93;3.13;;;;;;;17.77;37.35;101007.72;143738;590;46020;-75
2021/04/20 18:04:02;;;;;;;12.07;3.17;;;;;;;17.74;37.64;101010.53;143744;602;45010;-74
2021/04/20 18:07:24;;;;;;;8.25;3.33;;;;;;;17.71;37.59;101017.78;143739;581;46911;-75
2021/04/20 18:11:04;;;;;;;7.20;2.90;;;;;;;17.64;37.83;101011.09;143738;584;46008;-75
2021/04/20 18:14:18;;;;;;;9.05;2.12;;;;;;;17.54;37.32;101024.84;143742;611;46008;-75
2021/04/20 18:17:37;;;;;;;4.55;1.50;;;;;;;17.50;37.33;101027.75;143744;698;45018;-75
2021/04/20 18:20:53;;;;;;;4.45;2.00;;;;;;;17.40;37.63;101028.22;143738;623;46019;-74
2021/04/20 18:24:42;;;;;;;6.85;1.75;;;;;;;17.30;37.76;101034.94;143739;604;46010;-75
2021/04/20 18:27:52;;;;;;;7.25;2.33;;;;;;;17.27;37.52;101051.03;143742;564;46008;-75
2021/04/20 18:30:31;;;;;;;5.22;1.40;;;;;;;17.24;36.78;101051.19;143741;693;47008;-75
2021/04/20 18:33:38;;;;;;;6.57;1.87;;;;;;;17.18;37.76;101052.34;143739;590;46018;-75
2021/04/20 18:37:10;;;;;;;4.28;2.30;;;;;;;17.15;37.25;101049.84;143741;594;46009;-75
2021/04/20 18:40:48;;;;;;;6.35;2.72;;;;;;;17.15;37.92;101054.28;143742;585;45020;-75
2021/04/20 18:44:18;;;;;;;6.78;3.00;;;;;;;17.10;37.96;101059.84;143741;599;47008;-74
2021/04/20 18:47:13;;;;;;;4.32;2.60;;;;;;;17.03;37.01;101061.94;143740;573;46018;-74
2021/04/20 18:50:03;;;;;;;7.95;3.33;;;;;;;16.93;37.91;101076.56;143743;606;46011;-75
2021/04/20 18:53:08;;;;;;;8.68;3.33;;;;;;;16.81;37.98;101072.69;143742;580;46008;-74
2021/04/20 18:55:58;;;;;;;5.70;3.65;;;;;;;16.74;37.78;101077.44;143741;605;46025;-74
2021/04/20 18:59:12;;;;;;;4.62;2.00;;;;;;;16.71;38.26;101079.38;143738;680;46022;-75
2021/04/20 19:02:12;;;;;;;3.70;2.00;;;;;;;16.64;38.46;101081.47;143737;581;46018;-75
2021/04/20 19:05:26;;;;;;;4.50;1.75;;;;;;;16.62;38.03;101091.28;143740;692;46020;-75
2021/04/20 19:08:24;;;;;;;4.97;1.90;;;;;;;16.63;38.51;101093.00;143741;571;46019;-74
2021/04/20 19:11:37;;;;;;;5.05;1.87;;;;;;;16.63;37.72;101093.00;143740;568;46012;-74
2021/04/20 19:14:52;;;;;;;6.20;2.50;;;;;;;16.63;38.40;101087.69;143739;587;46018;-75
2021/04/20 19:18:15;;;;;;;7.80;2.20;;;;;;;16.61;38.33;101092.22;143742;569;46008;-75
2021/04/20 19:21:34;;;;;;;6.60;2.70;;;;;;;16.66;38.18;101099.94;143739;631;47010;-75
2021/04/20 19:24:55;;;;;;;10.27;3.50;;;;;;;16.62;38.24;101099.25;143740;634;46010;-74
2021/04/20 19:27:32;;;;;;;13.30;2.80;;;;;;;16.60;38.08;101114.34;143738;589;46010;-74
2021/04/20 19:30:14;;;;;;;7.85;4.30;;;;;;;16.53;38.44;101119.06;143740;566;46020;-74
2021/04/20 19:33:04;;;;;;;7.32;4.60;;;;;;;16.42;38.77;101111.63;143741;577;46008;-74
2021/04/20 19:35:50;;;;;;;10.75;4.80;;;;;;;16.37;38.78;101118.91;143738;569;46022;-75
2021/04/20 19:39:02;;;;;;;12.55;7.57;;;;;;;16.32;38.96;101123.59;143740;575;45018;-74
2021/04/20 19:42:23;;;;;;;11.12;6.75;;;;;;;16.29;39.17;101121.06;143740;580;46020;-73
2021/04/20 19:45:17;;;;;;;12.20;5.50;;;;;;;16.27;38.81;101122.94;143742;623;45572;-74
2021/04/20 19:47:45;;;;;;;9.13;5.70;;;;;;;16.22;39.08;101127.56;143739;583;46022;-75
2021/04/20 19:50:20;;;;;;;7.30;4.57;;;;;;;16.19;39.01;101133.00;143740;606;46008;-75
2021/04/20 19:52:58;;;;;;;9.27;5.10;;;;;;;16.16;39.32;101135.81;143739;643;46008;-75
2021/04/20 19:55:30;;;;;;;9.10;5.00;;;;;;;16.11;39.25;101129.84;143740;582;46010;-75
2021/04/20 19:57:58;;;;;;;9.38;4.97;;;;;;;16.04;39.16;101130.09;143739;589;46023;-74
2021/04/20 20:00:30;;;;;;;9.18;4.87;;;;;;;15.97;39.61;101130.47;143740;572;45018;-74
2021/04/20 20:03:20;;;;;;;7.07;4.00;;;;;;;15.86;39.71;101144.16;143741;570;46010;-74
2021/04/20 20:05:57;;;;;;;7.53;3.20;;;;;;;15.73;39.92;101147.31;143741;597;47011;-75
2021/04/20 20:08:25;;;;;;;7.50;3.62;;;;;;;15.66;40.30;101140.53;143738;594;46018;-75
2021/04/20 20:11:09;;;;;;;10.75;4.00;;;;;;;15.58;40.00;101137.34;143740;612;46018;-75
2021/04/20 20:13:51;;;;;;;8.55;3.70;;;;;;;15.59;40.09;101143.53;143740;565;46008;-74
2021/04/20 20:16:44;;;;;;;8.35;4.43;;;;;;;15.55;39.91;101138.37;143740;626;46018;-75
2021/04/20 20:19:21;;;;;;;14.45;3.72;;;;;;;15.58;40.05;101142.66;143736;594;47011;-75
2021/04/20 20:21:48;;;;;;;8.05;3.42;;;;;;;15.55;40.87;101143.66;143739;625;46913;-75
2021/04/20 20:24:17;;;;;;;7.40;3.20;;;;;;;15.52;39.98;101140.28;143740;573;46027;-75
2021/04/20 20:26:50;;;;;;;6.75;3.45;;;;;;;15.47;40.44;101139.59;143741;616;47010;-75
2021/04/20 20:29:20;;;;;;;6.90;3.60;;;;;;;15.42;41.10;101149.50;143738;567;46023;-74
2021/04/20 20:31:59;;;;;;;9.70;2.97;;;;;;;15.35;40.53;101154.19;143741;605;45046;-75
2021/04/20 20:34:29;;;;;;;7.47;3.47;;;;;;;15.27;40.91;101157.16;143740;572;46008;-75
2021/04/20 20:37:07;;;;;;;7.68;3.95;;;;;;;15.21;41.07;101162.69;143741;573;47006;-75
2021/04/20 20:39:48;;;;;;;8.80;3.17;;;;;;;15.09;41.06;101156.13;143737;679;47022;-75
2021/04/20 20:42:23;;;;;;;7.90;3.10;;;;;;;14.96;41.56;101155.72;143741;606;46008;-75
2021/04/20 20:45:00;;;;;;;5.43;2.70;;;;;;;14.91;41.99;101170.06;143737;569;46020;-73
2021/04/20 20:47:29;;;;;;;7.18;2.72;;;;;;;14.84;42.08;101154.44;143742;565;46018;-74
2021/04/20 20:50:00;;;;;;;5.32;2.30;;;;;;;14.79;42.17;101166.09;143738;649;47010;-70
2021/04/20 20:52:30;;;;;;;4.47;2.60;;;;;;;14.66;42.59;101163.91;143739;585;46010;-74
2021/04/20 20:54:59;;;;;;;7.95;3.10;;;;;;;14.58;42.75;101171.25;143741;639;46008;-74
2021/04/20 20:57:45;;;;;;;5.32;3.00;;;;;;;14.49;41.97;101177.75;143742;604;47011;-73
2021/04/20 21:00:20;;;;;;;7.22;2.87;;;;;;;14.36;42.42;101185.25;143740;587;46034;-73